Frontier Kotobuki — 3EXC5 — position and weather

sailwx.info

Track history (hours):
 
Tides and Currents Weather Stations Pressure Air Temp Water Temp Dewpoint Dewpoint Depression Visibility Wind Speed Wind Dir Waves Ship Positions

Frontier Kotobuki

Last reported at 2014-Oct-29 21:10 UTC. Time now 2014-Nov-01 10:35 UTC.
Position N 01°10' E 103°48'.

Length 290 m; draft 17.6 m.

Type: Cargo ship. MMSI: 355036000.

Date/timePositionNaut miles runAvg speedWind from/ knotsBaromVisibWave heightAir tempDewpointWater temp
2014-Oct-29 21:10N 01°10' E 103°48'711.6
2014-Oct-29 20:33N 01°13' E 103°54'4 3.8
2014-Oct-29 19:31N 01°16' E 103°57'0 0.0
2014-Oct-29 18:31N 01°16' E 103°57'0 0.2
2014-Oct-29 17:28N 01°16' E 103°57'0 0.1
2014-Oct-29 16:22N 01°16' E 103°57'0 0.0
2014-Oct-29 15:28N 01°16' E 103°57'0 0.0
2014-Oct-29 14:19N 01°16' E 103°57'0 0.0
2014-Oct-29 13:25N 01°16' E 103°57'0 0.0
2014-Oct-29 12:16N 01°16' E 103°57'0 0.1
2014-Oct-29 11:13N 01°16' E 103°58'0 0.0
2014-Oct-29 10:22N 01°16' E 103°58'0 0.1
2014-Oct-29 09:16N 01°16' E 103°57'0 0.1
2014-Oct-29 08:28N 01°16' E 103°57'0 0.2
2014-Oct-29 07:19N 01°16' E 103°57'0 0.1
2014-Oct-29 06:28N 01°16' E 103°57'0 0.0
2014-Oct-29 05:16N 01°16' E 103°57'0 0.0
2014-Oct-29 04:31N 01°16' E 103°57'1 0.8
2014-Oct-29 03:32N 01°15' E 103°57'3 3.1
2014-Oct-29 02:34N 01°16' E 104°00'6 5.8
2014-Oct-29 01:33N 01°17' E 104°06'7 6.6
2014-Oct-29 00:34N 01°18' E 104°12'348 9.5
2014-Oct-27 12:06S 02°20' E 108°43'128 9.9
2014-Oct-26 23:07S 04°01' E 110°03'2111.6
2014-Oct-26 21:17S 04°08' E 110°23'912.3
2014-Oct-26 20:33S 04°10' E 110°32'1312.2
2014-Oct-26 19:29S 04°13' E 110°45'24711.6
2014-Oct-25 22:13S 04°42' E 114°51'1311.7
2014-Oct-25 21:08S 04°40' E 115°03'3111.4
2014-Oct-25 18:23S 04°35' E 115°34'1011.4
2014-Oct-25 17:33S 04°33' E 115°44'  
Track history (hours):
 
Tides and Currents Weather Stations Pressure Air Temp Water Temp Dewpoint Dewpoint Depression Visibility Wind Speed Wind Dir Waves Ship Positions

Frontier Kotobuki

Last reported at 2014-Oct-29 21:10 UTC. Time now 2014-Nov-01 10:35 UTC.
Position N 01°10' E 103°48'.

Length 290 m; draft 17.6 m.

Type: Cargo ship. MMSI: 355036000.

Date/timePositionNaut miles runAvg speedWind from/ knotsBaromVisibWave heightAir tempDewpointWater temp
2014-Oct-29 21:10N 01°10' E 103°48'711.6
2014-Oct-29 20:33N 01°13' E 103°54'4 3.8
2014-Oct-29 19:31N 01°16' E 103°57'0 0.0
2014-Oct-29 18:31N 01°16' E 103°57'0 0.2
2014-Oct-29 17:28N 01°16' E 103°57'0 0.1
2014-Oct-29 16:22N 01°16' E 103°57'0 0.0
2014-Oct-29 15:28N 01°16' E 103°57'0 0.0
2014-Oct-29 14:19N 01°16' E 103°57'0 0.0
2014-Oct-29 13:25N 01°16' E 103°57'0 0.0
2014-Oct-29 12:16N 01°16' E 103°57'0 0.1
2014-Oct-29 11:13N 01°16' E 103°58'0 0.0
2014-Oct-29 10:22N 01°16' E 103°58'0 0.1
2014-Oct-29 09:16N 01°16' E 103°57'0 0.1
2014-Oct-29 08:28N 01°16' E 103°57'0 0.2
2014-Oct-29 07:19N 01°16' E 103°57'0 0.1
2014-Oct-29 06:28N 01°16' E 103°57'0 0.0
2014-Oct-29 05:16N 01°16' E 103°57'0 0.0
2014-Oct-29 04:31N 01°16' E 103°57'1 0.8
2014-Oct-29 03:32N 01°15' E 103°57'3 3.1
2014-Oct-29 02:34N 01°16' E 104°00'6 5.8
2014-Oct-29 01:33N 01°17' E 104°06'7 6.6
2014-Oct-29 00:34N 01°18' E 104°12'348 9.5
2014-Oct-27 12:06S 02°20' E 108°43'128 9.9
2014-Oct-26 23:07S 04°01' E 110°03'2111.6
2014-Oct-26 21:17S 04°08' E 110°23'912.3
2014-Oct-26 20:33S 04°10' E 110°32'1312.2
2014-Oct-26 19:29S 04°13' E 110°45'24711.6
2014-Oct-25 22:13S 04°42' E 114°51'1311.7
2014-Oct-25 21:08S 04°40' E 115°03'3111.4
2014-Oct-25 18:23S 04°35' E 115°34'1011.4
2014-Oct-25 17:33S 04°33' E 115°44'  

Dump ship's entire track history